Latest Weather Observations for Campania

IDT60801

Issued at 8:02 pm EDT Tuesday 17 January 2017 (issued every 30 minutes, with the page automatically refreshed every 10 minutes)

About weather observations | Map of weather stations | Latest weather observations for TAS | Other Formats
Station Details ID: 094212 Name: CAMPANIA (KINCORA) Lat: -42.69 Lon: 147.43 Height: 45.0 m
Data from the previous 72 hours. | See also: Recent months at Campania
Date/Time
EDT
Temp
°C
App
Temp
°C
Dew
Point
°C
Rel
Hum
%
Delta-T
°C
Wind Press
QNH
hPa
Press
MSL
hPa
Rain since
9am
mm
Dir  Spd
km/h
Gust
km/h
Spd
kts
Gust
kts
17/08:00pm 18.7 17.6 13.1 70 3.2 S 11 15 6 8 - - 0.0
17/07:30pm 18.9 17.8 13.1 69 3.3 S 11 15 6 8 - - 0.0
17/07:00pm 19.4 17.9 13.1 67 3.6 S 13 19 7 10 - - 0.0
17/06:30pm 19.9 18.0 11.9 60 4.5 SSE 13 19 7 10 - - 0.0
17/06:00pm 19.8 18.0 12.1 61 4.3 SE 13 17 7 9 - - 0.0
17/05:30pm 20.2 17.5 11.7 58 4.7 SSE 17 22 9 12 - - 0.0
17/05:00pm 21.3 18.8 12.2 56 5.1 SSE 17 22 9 12 - - 0.0
17/04:30pm 21.1 18.0 11.7 55 5.2 S 19 28 10 15 - - 0.0
17/04:00pm 20.9 16.9 10.4 51 5.7 SSE 22 32 12 17 - - 0.0
17/03:30pm 22.3 18.4 10.8 48 6.4 SSE 22 30 12 16 - - 0.0
17/03:00pm 25.1 21.7 11.3 42 7.8 SSE 20 28 11 15 - - 0.0
17/02:30pm 25.9 22.6 10.9 39 8.5 SSE 19 22 10 12 - - 0.0
17/02:00pm 26.2 22.5 10.0 36 9.0 SSW 20 39 11 21 - - 0.0
17/01:30pm 25.7 23.6 9.9 37 8.7 SSW 11 19 6 10 - - 0.0
17/01:00pm 25.5 22.8 8.9 35 9.0 WNW 13 26 7 14 - - 0.0
17/12:30pm 25.7 21.0 7.8 32 9.5 W 22 35 12 19 - - 0.0
17/12:00pm 26.1 22.1 9.0 34 9.3 WNW 20 33 11 18 - - 0.0
17/11:30am 24.8 21.1 7.9 34 9.0 W 17 28 9 15 - - 0.0
17/11:00am 23.8 19.1 7.8 36 8.4 WNW 22 32 12 17 - - 0.0
17/10:30am 22.4 17.7 6.2 35 8.2 NW 20 30 11 16 - - 0.0
17/10:00am 22.2 18.2 8.3 41 7.3 W 19 30 10 16 - - 0.0
17/09:30am 19.9 17.7 9.2 50 5.7 N 11 13 6 7 - - 0.0
17/09:00am 18.6 16.5 8.3 51 5.3 NNW 9 13 5 7 - - 0.0
17/08:30am 18.0 16.4 8.6 54 4.9 NNW 7 11 4 6 - - 0.0
17/08:00am 17.0 14.6 8.7 58 4.3 NNW 11 15 6 8 - - 0.0
17/07:30am 16.3 14.0 9.0 62 3.8 NNW 11 15 6 8 - - 0.0
17/07:00am 13.1 11.7 9.4 78 1.9 N 7 9 4 5 - - 0.0
17/06:30am 10.4 8.6 7.8 84 1.3 N 7 9 4 5 - - 0.0
17/06:00am 9.7 7.7 7.1 84 1.2 NNW 7 11 4 6 - - 0.0
17/05:30am 11.1 8.9 8.0 81 1.5 NW 9 11 5 6 - - 0.0
17/05:00am 10.7 9.6 7.0 78 1.8 WNW 2 6 1 3 - - 0.0
17/04:30am 12.0 10.0 7.1 72 2.4 NE 7 11 4 6 - - 0.0
17/04:00am 13.6 12.2 7.2 65 3.1 SW 4 9 2 5 - - 0.0
17/03:30am 15.4 12.8 7.9 61 3.8 NW 11 17 6 9 - - 0.0
17/03:00am 15.0 11.8 8.3 64 3.4 N 15 22 8 12 - - 0.0
17/02:30am 15.2 12.4 8.7 65 3.3 N 13 19 7 10 - - 0.0
17/02:00am 15.8 12.8 7.6 58 4.1 N 13 20 7 11 - - 0.0
17/01:30am 16.0 13.0 7.5 57 4.2 NNW 13 19 7 10 - - 0.0
17/01:00am 16.6 13.1 7.0 53 4.8 N 15 19 8 10 - - 0.0
17/12:30am 16.1 13.6 8.1 59 4.0 N 11 17 6 9 - - 0.0
17/12:00am 17.3 14.4 8.2 55 4.6 NNW 13 20 7 11 - - 0.0
 
Date/Time
EDT
Temp
°C
App
Temp
°C
Dew
Point
°C
Rel
Hum
%
Delta-T
°C
Wind Press
QNH
hPa
Press
MSL
hPa
Rain since
9am
mm
Dir  Spd
km/h
Gust
km/h
Spd
kts
Gust
kts
16/11:30pm 18.8 15.5 8.2 50 5.5 NW 15 22 8 12 - - 0.0
16/11:00pm 18.0 15.5 8.3 53 5.0 NW 11 17 6 9 - - 0.0
16/10:30pm 19.4 16.8 7.8 47 6.0 W 11 17 6 9 - - 0.0
16/10:00pm 20.4 16.7 8.1 45 6.4 WNW 17 28 9 15 - - 0.0
16/09:30pm 21.2 17.5 7.8 42 7.0 W 17 26 9 14 - - 0.0
16/09:00pm 18.1 17.3 11.7 66 3.5 SSW 7 11 4 6 - - 0.0
16/08:30pm 18.8 16.6 12.1 65 3.7 S 15 20 8 11 - - 0.0
16/08:00pm 20.8 18.9 11.7 56 5.1 S 13 19 7 10 - - 0.0
16/07:30pm 22.3 19.9 11.4 50 6.1 S 15 20 8 11 - - 0.0
16/07:00pm 22.5 20.1 11.3 49 6.2 S 15 19 8 10 - - 0.0
16/06:30pm 22.0 18.7 10.8 49 6.2 S 19 26 10 14 - - 0.0
16/06:00pm 23.8 19.9 10.8 44 7.2 SSE 22 30 12 16 - - 0.0
16/05:30pm 24.6 21.2 10.5 41 7.8 S 19 28 10 15 - - 0.0
16/05:00pm 25.0 20.6 10.5 40 8.1 S 24 32 13 17 - - 0.0
16/04:30pm 26.4 22.9 10.1 36 9.1 S 19 28 10 15 - - 0.0
16/04:00pm 27.0 22.9 6.4 27 10.8 W 17 26 9 14 - - 0.0
16/03:30pm 26.8 22.7 6.2 27 10.8 WNW 17 30 9 16 - - 0.0
16/03:00pm 26.2 21.2 6.3 28 10.4 W 22 32 12 17 - - 0.0
16/02:30pm 25.3 20.9 7.4 32 9.5 NW 20 28 11 15 - - 0.0
16/02:00pm 24.5 20.1 7.6 34 8.9 W 20 30 11 16 - - 0.0
16/01:30pm 23.6 19.4 7.3 35 8.5 W 19 33 10 18 - - 0.0
16/01:00pm 23.3 19.8 7.0 35 8.5 WNW 15 22 8 12 - - 0.0
16/12:30pm 22.7 18.4 8.0 39 7.7 W 20 30 11 16 - - 0.0
16/12:00pm 21.4 18.0 7.6 41 7.2 WNW 15 24 8 13 - - 0.0
16/11:30am 20.7 17.5 8.4 45 6.4 NW 15 32 8 17 - - 0.0
16/11:00am 20.8 17.4 9.1 47 6.2 WNW 17 26 9 14 - - 0.0
16/10:30am 19.3 15.5 7.7 47 5.9 WNW 17 28 9 15 - - 0.0
16/10:00am 19.1 15.9 8.4 50 5.6 WNW 15 24 8 13 - - 0.0
16/09:30am 18.0 13.7 7.7 51 5.2 WNW 20 28 11 15 - - 0.0
16/09:00am 17.7 13.6 8.0 53 4.9 W 19 26 10 14 - - 0.0
16/08:30am 16.6 12.9 8.1 57 4.3 WNW 17 22 9 12 - - 0.0
16/08:00am 16.4 13.1 8.1 58 4.2 WNW 15 19 8 10 - - 0.0
16/07:30am 15.5 12.8 7.5 59 4.0 NNW 11 20 6 11 - - 0.0
16/07:00am 14.4 12.2 7.7 64 3.3 NNW 9 15 5 8 - - 0.0
16/06:30am 13.6 10.1 7.2 65 3.1 NW 15 24 8 13 - - 0.0
16/06:00am 13.2 11.2 7.0 66 3.0 NW 7 17 4 9 - - 0.0
16/05:30am 13.3 10.1 6.9 65 3.1 WNW 13 20 7 11 - - 0.0
16/05:00am 13.3 10.1 6.9 65 3.1 NNW 13 19 7 10 - - 0.0
16/04:30am 13.7 10.5 7.0 64 3.3 NW 13 22 7 12 - - 0.0
16/04:00am 13.4 10.2 7.0 65 3.1 NW 13 20 7 11 - - 0.0
16/03:30am 13.5 10.7 6.8 64 3.2 NW 11 17 6 9 - - 0.0
16/03:00am 13.9 10.4 7.2 64 3.3 NW 15 24 8 13 - - 0.0
16/02:30am 14.1 11.3 6.9 62 3.5 NW 11 17 6 9 - - 0.0
16/02:00am 14.2 10.2 6.8 61 3.6 NW 17 28 9 15 - - 0.0
16/01:30am 14.5 10.2 6.8 60 3.8 NW 19 32 10 17 - - 0.0
16/01:00am 14.3 11.5 6.9 61 3.6 NNW 11 26 6 14 - - 0.0
16/12:30am 14.1 11.7 6.9 62 3.5 NW 9 17 5 9 - - 0.0
16/12:00am 14.4 12.0 7.2 62 3.5 NW 9 17 5 9 - - 0.0
 
Date/Time
EDT
Temp
°C
App
Temp
°C
Dew
Point
°C
Rel
Hum
%
Delta-T
°C
Wind Press
QNH
hPa
Press
MSL
hPa
Rain since
9am
mm
Dir  Spd
km/h
Gust
km/h
Spd
kts
Gust
kts
15/11:30pm 14.1 11.7 6.9 62 3.5 NW 9 13 5 7 - - 0.0
15/11:00pm 14.5 11.3 6.8 60 3.8 NNW 13 19 7 10 - - 0.0
15/10:30pm 14.8 12.0 7.1 60 3.8 N 11 17 6 9 - - 0.0
15/10:00pm 15.2 12.5 7.2 59 3.9 NNW 11 20 6 11 - - 0.0
15/09:30pm 15.6 13.0 7.6 59 4.0 NNW 11 20 6 11 - - 0.0
15/09:00pm 15.6 12.5 7.4 58 4.1 NNW 13 24 7 13 - - 0.0
15/08:30pm 16.3 13.6 7.5 56 4.4 NW 11 17 6 9 - - 0.0
15/08:00pm 16.6 12.2 7.3 54 4.6 NW 20 30 11 16 - - 0.0
15/07:30pm 17.8 13.4 7.2 50 5.3 WNW 20 32 11 17 - - 0.0
15/07:00pm 18.1 13.7 7.2 49 5.5 WNW 20 32 11 17 - - 0.0
15/06:30pm 17.9 12.4 7.6 51 5.2 WSW 26 39 14 21 - - 0.0
15/06:00pm 18.9 14.0 7.0 46 6.0 WNW 22 35 12 19 - - 0.0
15/05:30pm 18.4 14.1 7.2 48 5.7 WNW 19 37 10 20 - - 0.0
15/05:00pm 18.7 13.1 7.2 47 5.8 SW 26 35 14 19 - - 0.0
15/04:30pm 19.4 14.3 7.5 46 6.1 W 24 41 13 22 - - 0.0
15/04:00pm 19.2 14.0 7.3 46 6.0 W 24 37 13 20 - - 0.0
15/03:30pm 19.1 14.7 7.2 46 6.0 W 20 33 11 18 - - 0.0
15/03:00pm 20.1 15.0 7.8 45 6.3 W 24 35 13 19 - - 0.0
15/02:30pm 18.9 14.3 6.7 45 6.1 W 20 32 11 17 - - 0.0
15/02:00pm 19.8 13.9 7.5 45 6.3 W 28 41 15 22 - - 0.0
15/01:30pm 19.8 14.9 6.9 43 6.5 W 22 33 12 18 - - 0.0
15/01:00pm 20.9 16.1 8.9 46 6.4 NW 24 33 13 18 - - 0.0
15/12:30pm 18.2 14.3 7.0 48 5.6 W 17 28 9 15 - - 0.0
15/12:00pm 19.1 13.8 6.9 45 6.1 W 24 35 13 19 - - 0.0
15/11:30am 18.0 11.6 5.2 43 6.2 WNW 28 37 15 20 - - 0.0
15/11:00am 16.3 10.7 5.6 49 5.2 NW 24 33 13 18 - - 0.0
15/10:30am 16.7 11.3 6.2 50 5.1 W 24 43 13 23 - - 0.0
15/10:00am 17.0 10.4 5.9 48 5.4 W 30 44 16 24 - - 0.0
15/09:30am 15.1 9.4 4.8 50 4.8 W 24 35 13 19 - - 0.0
15/09:00am 15.2 10.5 5.1 51 4.8 W 19 28 10 15 - - 0.0
15/08:30am 14.0 9.8 4.0 51 4.6 WNW 15 22 8 12 - - 0.0
15/08:00am 13.7 9.2 4.0 52 4.4 W 17 28 9 15 - - 0.0
15/07:30am 12.8 8.3 4.0 55 4.0 W 17 30 9 16 - - 0.0
15/07:00am 13.0 8.2 4.7 57 3.8 W 19 26 10 14 - - 0.0
15/06:30am 12.9 8.4 4.1 55 4.0 W 17 26 9 14 - - 0.0
15/06:00am 12.6 8.8 3.8 55 4.0 W 13 32 7 17 - - 0.0
15/05:30am 12.7 7.7 3.6 54 4.1 W 19 35 10 19 - - 0.0
15/05:00am 12.6 8.4 3.8 55 4.0 W 15 24 8 13 - - 0.0
15/04:30am 12.4 7.1 3.1 53 4.1 W 20 32 11 17 - - 0.0
15/04:00am 12.2 6.2 3.2 54 4.0 W 24 37 13 20 - - 0.0
15/03:30am 12.2 6.9 3.2 54 4.0 W 20 33 11 18 - - 0.0
15/03:00am 11.9 6.2 2.6 53 4.0 W 22 39 12 21 - - 0.0
15/02:30am 12.5 4.9 2.9 52 4.2 WSW 32 43 17 23 - - 0.0
15/02:00am 12.6 7.9 3.0 52 4.2 W 17 30 9 16 - - 0.0
15/01:30am 12.9 8.2 3.3 52 4.3 W 17 32 9 17 - - 0.0
15/01:00am 12.7 7.6 3.1 52 4.3 WNW 19 35 10 19 - - 0.0
15/12:30am 12.8 7.4 2.4 49 4.5 WNW 20 43 11 23 - - 0.0
15/12:00am 12.9 6.8 2.5 49 4.6 W 24 50 13 27 - - 0.0
 
Date/Time
EDT
Temp
°C
App
Temp
°C
Dew
Point
°C
Rel
Hum
%
Delta-T
°C
Wind Press
QNH
hPa
Press
MSL
hPa
Rain since
9am
mm
Dir  Spd
km/h
Gust
km/h
Spd
kts
Gust
kts
14/11:36pm 13.2 6.3 2.4 48 4.7 W 28 56 15 30 - - 0.0
14/11:30pm 13.0 6.5 2.5 49 4.6 W 26 39 14 21 - - 0.0
14/11:00pm 13.2 6.7 2.4 48 4.7 WSW 26 48 14 26 - - 0.0
14/10:30pm 13.3 8.9 2.8 49 4.6 WNW 15 35 8 19 - - 0.0
14/10:02pm 13.5 6.6 2.4 47 4.9 WNW 28 67 15 36 - - 0.0
14/10:00pm 13.5 7.0 2.4 47 4.9 WNW 26 67 14 36 - - 0.0
14/09:30pm 13.6 5.5 3.1 49 4.7 W 35 74 19 40 - - 0.0
14/09:00pm 13.6 5.8 2.8 48 4.8 W 33 61 18 33 - - 0.0
14/08:55pm 13.6 6.7 2.8 48 4.8 W 28 54 15 29 - - 0.0
14/08:51pm 13.8 8.4 2.7 47 4.9 W 20 69 11 37 - - 0.0
14/08:32pm 14.0 5.1 3.2 48 4.9 WSW 39 57 21 31 - - 0.0
14/08:30pm 14.2 4.9 3.1 47 5.0 WSW 41 57 22 31 - - 0.0

Other Formats:

Comma delimited format used in spreadsheet applications
http://www.bom.gov.au/fwo/IDT60801/IDT60801.95972.axf

JavaScript Object Notation format (JSON) in row-major order
http://www.bom.gov.au/fwo/IDT60801/IDT60801.95972.json